sensor_id;sensor_type;location;lat;lon;timestamp;P1;durP1;ratioP1;P2;durP2;ratioP2
12631;SDS011;6381;45.748;12.106;2022-07-12T00:00:29;5.10;;;3.67;;
12631;SDS011;6381;45.748;12.106;2022-07-12T00:02:58;7.47;;;3.50;;
12631;SDS011;6381;45.748;12.106;2022-07-12T00:05:27;5.65;;;3.55;;
12631;SDS011;6381;45.748;12.106;2022-07-12T00:07:57;5.05;;;3.60;;
12631;SDS011;6381;45.748;12.106;2022-07-12T00:10:26;5.72;;;3.13;;
12631;SDS011;6381;45.748;12.106;2022-07-12T00:12:55;5.15;;;3.75;;
12631;SDS011;6381;45.748;12.106;2022-07-12T00:15:24;4.32;;;3.22;;
12631;SDS011;6381;45.748;12.106;2022-07-12T00:17:55;5.00;;;3.30;;
12631;SDS011;6381;45.748;12.106;2022-07-12T00:20:25;5.78;;;3.53;;
12631;SDS011;6381;45.748;12.106;2022-07-12T00:22:54;5.80;;;3.63;;
12631;SDS011;6381;45.748;12.106;2022-07-12T00:25:25;3.63;;;3.22;;
12631;SDS011;6381;45.748;12.106;2022-07-12T00:27:54;3.22;;;2.78;;
12631;SDS011;6381;45.748;12.106;2022-07-12T00:30:23;4.47;;;3.50;;
12631;SDS011;6381;45.748;12.106;2022-07-12T00:32:52;5.45;;;3.40;;
12631;SDS011;6381;45.748;12.106;2022-07-12T00:35:23;5.63;;;3.38;;
12631;SDS011;6381;45.748;12.106;2022-07-12T00:37:52;5.45;;;3.25;;
12631;SDS011;6381;45.748;12.106;2022-07-12T00:40:21;6.90;;;3.67;;
12631;SDS011;6381;45.748;12.106;2022-07-12T00:42:51;5.60;;;3.85;;
12631;SDS011;6381;45.748;12.106;2022-07-12T00:45:21;3.70;;;3.22;;
12631;SDS011;6381;45.748;12.106;2022-07-12T00:47:50;4.00;;;3.60;;
12631;SDS011;6381;45.748;12.106;2022-07-12T00:50:22;5.93;;;3.70;;
12631;SDS011;6381;45.748;12.106;2022-07-12T00:52:52;4.15;;;3.35;;
12631;SDS011;6381;45.748;12.106;2022-07-12T00:55:22;4.97;;;3.63;;
12631;SDS011;6381;45.748;12.106;2022-07-12T00:57:52;3.72;;;3.40;;
12631;SDS011;6381;45.748;12.106;2022-07-12T01:00:22;3.38;;;3.00;;
12631;SDS011;6381;45.748;12.106;2022-07-12T01:02:53;3.60;;;3.30;;
12631;SDS011;6381;45.748;12.106;2022-07-12T01:05:25;5.00;;;3.40;;
12631;SDS011;6381;45.748;12.106;2022-07-12T01:07:56;3.50;;;3.20;;
12631;SDS011;6381;45.748;12.106;2022-07-12T01:10:26;3.45;;;3.17;;
12631;SDS011;6381;45.748;12.106;2022-07-12T01:12:58;4.55;;;2.95;;
12631;SDS011;6381;45.748;12.106;2022-07-12T01:15:28;3.90;;;3.42;;
12631;SDS011;6381;45.748;12.106;2022-07-12T01:17:57;5.45;;;3.60;;
12631;SDS011;6381;45.748;12.106;2022-07-12T01:20:30;4.68;;;3.53;;
12631;SDS011;6381;45.748;12.106;2022-07-12T01:23:01;4.35;;;3.70;;
12631;SDS011;6381;45.748;12.106;2022-07-12T01:25:31;4.30;;;3.90;;
12631;SDS011;6381;45.748;12.106;2022-07-12T01:28:00;4.43;;;3.90;;
12631;SDS011;6381;45.748;12.106;2022-07-12T01:30:30;5.90;;;3.72;;
12631;SDS011;6381;45.748;12.106;2022-07-12T01:32:59;4.20;;;3.90;;
12631;SDS011;6381;45.748;12.106;2022-07-12T01:35:29;3.60;;;3.33;;
12631;SDS011;6381;45.748;12.106;2022-07-12T01:38:01;3.78;;;3.47;;
12631;SDS011;6381;45.748;12.106;2022-07-12T01:40:30;3.80;;;3.40;;
12631;SDS011;6381;45.748;12.106;2022-07-12T01:43:04;3.88;;;3.38;;
12631;SDS011;6381;45.748;12.106;2022-07-12T01:45:33;3.85;;;3.25;;
12631;SDS011;6381;45.748;12.106;2022-07-12T01:48:03;3.60;;;2.97;;
12631;SDS011;6381;45.748;12.106;2022-07-12T01:50:33;4.70;;;3.50;;
12631;SDS011;6381;45.748;12.106;2022-07-12T01:53:06;3.90;;;3.47;;
12631;SDS011;6381;45.748;12.106;2022-07-12T01:55:35;3.92;;;3.42;;
12631;SDS011;6381;45.748;12.106;2022-07-12T01:58:05;5.22;;;3.25;;
12631;SDS011;6381;45.748;12.106;2022-07-12T02:00:35;3.50;;;3.10;;
12631;SDS011;6381;45.748;12.106;2022-07-12T02:03:04;5.20;;;3.20;;
12631;SDS011;6381;45.748;12.106;2022-07-12T02:05:35;4.38;;;3.97;;
12631;SDS011;6381;45.748;12.106;2022-07-12T02:08:06;4.43;;;3.72;;
12631;SDS011;6381;45.748;12.106;2022-07-12T02:10:35;4.85;;;3.78;;
12631;SDS011;6381;45.748;12.106;2022-07-12T02:13:04;4.32;;;3.63;;
12631;SDS011;6381;45.748;12.106;2022-07-12T02:15:34;4.85;;;4.10;;
12631;SDS011;6381;45.748;12.106;2022-07-12T02:18:04;4.70;;;4.00;;
12631;SDS011;6381;45.748;12.106;2022-07-12T02:20:33;4.40;;;3.67;;
12631;SDS011;6381;45.748;12.106;2022-07-12T02:23:02;4.50;;;3.70;;
12631;SDS011;6381;45.748;12.106;2022-07-12T02:25:33;7.03;;;4.03;;
12631;SDS011;6381;45.748;12.106;2022-07-12T02:28:02;3.72;;;3.30;;
12631;SDS011;6381;45.748;12.106;2022-07-12T02:30:31;4.13;;;3.45;;
12631;SDS011;6381;45.748;12.106;2022-07-12T02:33:00;6.38;;;4.00;;
12631;SDS011;6381;45.748;12.106;2022-07-12T02:35:29;4.60;;;3.75;;
12631;SDS011;6381;45.748;12.106;2022-07-12T02:37:59;5.75;;;4.30;;
12631;SDS011;6381;45.748;12.106;2022-07-12T02:40:28;4.63;;;4.20;;
12631;SDS011;6381;45.748;12.106;2022-07-12T02:43:15;5.60;;;4.18;;
12631;SDS011;6381;45.748;12.106;2022-07-12T02:45:45;4.30;;;3.90;;
12631;SDS011;6381;45.748;12.106;2022-07-12T02:48:14;6.20;;;4.20;;
12631;SDS011;6381;45.748;12.106;2022-07-12T02:50:43;4.25;;;3.85;;
12631;SDS011;6381;45.748;12.106;2022-07-12T02:53:12;4.53;;;3.80;;
12631;SDS011;6381;45.748;12.106;2022-07-12T02:55:41;5.82;;;4.20;;
12631;SDS011;6381;45.748;12.106;2022-07-12T02:58:10;5.15;;;4.30;;
12631;SDS011;6381;45.748;12.106;2022-07-12T03:00:41;5.57;;;4.28;;
12631;SDS011;6381;45.748;12.106;2022-07-12T03:03:11;4.72;;;4.22;;
12631;SDS011;6381;45.748;12.106;2022-07-12T03:05:41;4.05;;;3.60;;
12631;SDS011;6381;45.748;12.106;2022-07-12T03:08:10;4.40;;;4.00;;
12631;SDS011;6381;45.748;12.106;2022-07-12T03:10:40;3.85;;;3.53;;
12631;SDS011;6381;45.748;12.106;2022-07-12T03:13:09;5.60;;;4.00;;
12631;SDS011;6381;45.748;12.106;2022-07-12T03:15:38;4.55;;;3.92;;
12631;SDS011;6381;45.748;12.106;2022-07-12T03:18:09;5.22;;;3.72;;
12631;SDS011;6381;45.748;12.106;2022-07-12T03:20:38;4.55;;;4.13;;
12631;SDS011;6381;45.748;12.106;2022-07-12T03:23:07;7.75;;;4.32;;
12631;SDS011;6381;45.748;12.106;2022-07-12T03:25:37;5.93;;;4.03;;
12631;SDS011;6381;45.748;12.106;2022-07-12T03:28:06;6.13;;;4.00;;
12631;SDS011;6381;45.748;12.106;2022-07-12T03:30:35;5.78;;;4.13;;
12631;SDS011;6381;45.748;12.106;2022-07-12T03:33:04;7.78;;;4.60;;
12631;SDS011;6381;45.748;12.106;2022-07-12T03:35:36;9.15;;;4.45;;
12631;SDS011;6381;45.748;12.106;2022-07-12T03:38:05;6.82;;;4.13;;
12631;SDS011;6381;45.748;12.106;2022-07-12T03:40:34;6.72;;;4.10;;
12631;SDS011;6381;45.748;12.106;2022-07-12T03:43:03;4.53;;;3.90;;
12631;SDS011;6381;45.748;12.106;2022-07-12T03:45:32;5.95;;;4.05;;
12631;SDS011;6381;45.748;12.106;2022-07-12T03:48:01;5.25;;;4.13;;
12631;SDS011;6381;45.748;12.106;2022-07-12T03:50:30;6.53;;;4.45;;
12631;SDS011;6381;45.748;12.106;2022-07-12T03:53:01;4.50;;;4.00;;
12631;SDS011;6381;45.748;12.106;2022-07-12T03:55:30;5.25;;;4.28;;
12631;SDS011;6381;45.748;12.106;2022-07-12T03:57:59;4.90;;;4.13;;
12631;SDS011;6381;45.748;12.106;2022-07-12T04:00:29;4.75;;;4.22;;
12631;SDS011;6381;45.748;12.106;2022-07-12T04:02:58;5.07;;;3.97;;
12631;SDS011;6381;45.748;12.106;2022-07-12T04:05:27;5.65;;;4.00;;
12631;SDS011;6381;45.748;12.106;2022-07-12T04:07:56;6.88;;;3.95;;
12631;SDS011;6381;45.748;12.106;2022-07-12T04:10:29;6.28;;;3.95;;
12631;SDS011;6381;45.748;12.106;2022-07-12T04:12:58;4.47;;;3.88;;
12631;SDS011;6381;45.748;12.106;2022-07-12T04:15:27;5.43;;;4.10;;
12631;SDS011;6381;45.748;12.106;2022-07-12T04:17:57;4.15;;;3.75;;
12631;SDS011;6381;45.748;12.106;2022-07-12T04:20:26;7.90;;;3.70;;
12631;SDS011;6381;45.748;12.106;2022-07-12T04:22:56;4.97;;;3.90;;
12631;SDS011;6381;45.748;12.106;2022-07-12T04:25:25;4.38;;;3.53;;
12631;SDS011;6381;45.748;12.106;2022-07-12T04:27:55;4.15;;;3.80;;
12631;SDS011;6381;45.748;12.106;2022-07-12T04:30:24;5.13;;;3.67;;
12631;SDS011;6381;45.748;12.106;2022-07-12T04:32:56;5.72;;;3.85;;
12631;SDS011;6381;45.748;12.106;2022-07-12T04:35:25;6.95;;;3.78;;
12631;SDS011;6381;45.748;12.106;2022-07-12T04:37:54;4.85;;;3.97;;
12631;SDS011;6381;45.748;12.106;2022-07-12T04:40:23;5.63;;;3.67;;
12631;SDS011;6381;45.748;12.106;2022-07-12T04:42:52;4.43;;;3.65;;
12631;SDS011;6381;45.748;12.106;2022-07-12T04:45:23;5.28;;;4.00;;
12631;SDS011;6381;45.748;12.106;2022-07-12T04:47:52;5.00;;;3.75;;
12631;SDS011;6381;45.748;12.106;2022-07-12T04:50:28;5.70;;;3.88;;
12631;SDS011;6381;45.748;12.106;2022-07-12T04:52:57;5.00;;;3.70;;
12631;SDS011;6381;45.748;12.106;2022-07-12T04:55:26;5.97;;;4.07;;
12631;SDS011;6381;45.748;12.106;2022-07-12T04:57:55;6.45;;;3.40;;
12631;SDS011;6381;45.748;12.106;2022-07-12T05:00:26;6.47;;;3.83;;
12631;SDS011;6381;45.748;12.106;2022-07-12T05:02:55;4.90;;;3.65;;
12631;SDS011;6381;45.748;12.106;2022-07-12T05:05:25;7.97;;;3.83;;
12631;SDS011;6381;45.748;12.106;2022-07-12T05:07:54;7.10;;;3.53;;
12631;SDS011;6381;45.748;12.106;2022-07-12T05:10:23;4.65;;;3.60;;
12631;SDS011;6381;45.748;12.106;2022-07-12T05:12:52;4.72;;;3.05;;
12631;SDS011;6381;45.748;12.106;2022-07-12T05:15:22;5.63;;;3.28;;
12631;SDS011;6381;45.748;12.106;2022-07-12T05:17:52;5.32;;;3.38;;
12631;SDS011;6381;45.748;12.106;2022-07-12T05:20:22;4.75;;;3.22;;
12631;SDS011;6381;45.748;12.106;2022-07-12T05:22:51;3.85;;;3.40;;
12631;SDS011;6381;45.748;12.106;2022-07-12T05:25:22;5.38;;;3.60;;
12631;SDS011;6381;45.748;12.106;2022-07-12T05:27:51;3.78;;;3.35;;
12631;SDS011;6381;45.748;12.106;2022-07-12T05:30:20;4.63;;;3.13;;
12631;SDS011;6381;45.748;12.106;2022-07-12T05:32:49;4.40;;;2.85;;
12631;SDS011;6381;45.748;12.106;2022-07-12T05:35:21;5.55;;;3.03;;
12631;SDS011;6381;45.748;12.106;2022-07-12T05:37:50;4.15;;;2.80;;
12631;SDS011;6381;45.748;12.106;2022-07-12T05:40:19;4.55;;;3.00;;
12631;SDS011;6381;45.748;12.106;2022-07-12T05:42:51;5.15;;;3.13;;
12631;SDS011;6381;45.748;12.106;2022-07-12T05:45:21;4.13;;;2.60;;
12631;SDS011;6381;45.748;12.106;2022-07-12T05:47:50;6.30;;;2.80;;
12631;SDS011;6381;45.748;12.106;2022-07-12T05:50:21;3.78;;;2.80;;
12631;SDS011;6381;45.748;12.106;2022-07-12T05:52:50;5.60;;;2.97;;
12631;SDS011;6381;45.748;12.106;2022-07-12T05:55:37;3.90;;;3.20;;
12631;SDS011;6381;45.748;12.106;2022-07-12T05:58:06;4.47;;;2.80;;
12631;SDS011;6381;45.748;12.106;2022-07-12T06:00:35;6.90;;;3.70;;
12631;SDS011;6381;45.748;12.106;2022-07-12T06:03:05;7.28;;;3.20;;
12631;SDS011;6381;45.748;12.106;2022-07-12T06:05:35;5.70;;;3.05;;
12631;SDS011;6381;45.748;12.106;2022-07-12T06:08:04;7.47;;;2.88;;
12631;SDS011;6381;45.748;12.106;2022-07-12T06:10:34;4.78;;;2.70;;
12631;SDS011;6381;45.748;12.106;2022-07-12T06:13:03;6.22;;;2.58;;
12631;SDS011;6381;45.748;12.106;2022-07-12T06:15:32;3.47;;;2.50;;
12631;SDS011;6381;45.748;12.106;2022-07-12T06:18:02;7.63;;;3.00;;
12631;SDS011;6381;45.748;12.106;2022-07-12T06:20:32;6.57;;;2.90;;
12631;SDS011;6381;45.748;12.106;2022-07-12T06:23:03;10.75;;;2.83;;
12631;SDS011;6381;45.748;12.106;2022-07-12T06:25:32;4.13;;;2.42;;
12631;SDS011;6381;45.748;12.106;2022-07-12T06:28:10;4.70;;;2.47;;
12631;SDS011;6381;45.748;12.106;2022-07-12T06:30:39;4.13;;;2.38;;
12631;SDS011;6381;45.748;12.106;2022-07-12T06:33:09;8.15;;;2.50;;
12631;SDS011;6381;45.748;12.106;2022-07-12T06:35:40;6.78;;;2.30;;
12631;SDS011;6381;45.748;12.106;2022-07-12T06:38:10;4.97;;;2.50;;
12631;SDS011;6381;45.748;12.106;2022-07-12T06:40:40;5.63;;;2.50;;
12631;SDS011;6381;45.748;12.106;2022-07-12T06:43:09;6.40;;;2.60;;
12631;SDS011;6381;45.748;12.106;2022-07-12T06:45:40;5.45;;;2.47;;
12631;SDS011;6381;45.748;12.106;2022-07-12T06:48:09;3.15;;;2.15;;
12631;SDS011;6381;45.748;12.106;2022-07-12T06:50:38;4.88;;;2.15;;
12631;SDS011;6381;45.748;12.106;2022-07-12T06:53:07;6.43;;;2.15;;
12631;SDS011;6381;45.748;12.106;2022-07-12T06:55:42;4.22;;;2.30;;
12631;SDS011;6381;45.748;12.106;2022-07-12T06:58:11;6.50;;;2.00;;
12631;SDS011;6381;45.748;12.106;2022-07-12T07:00:41;3.78;;;2.28;;
12631;SDS011;6381;45.748;12.106;2022-07-12T07:03:10;2.97;;;1.90;;
12631;SDS011;6381;45.748;12.106;2022-07-12T07:05:39;4.57;;;2.10;;
12631;SDS011;6381;45.748;12.106;2022-07-12T07:08:08;3.58;;;2.30;;
12631;SDS011;6381;45.748;12.106;2022-07-12T07:10:39;3.45;;;2.00;;
12631;SDS011;6381;45.748;12.106;2022-07-12T07:13:08;3.72;;;2.03;;
12631;SDS011;6381;45.748;12.106;2022-07-12T07:15:39;4.63;;;2.60;;
12631;SDS011;6381;45.748;12.106;2022-07-12T07:18:09;3.03;;;2.08;;
12631;SDS011;6381;45.748;12.106;2022-07-12T07:20:39;3.45;;;2.20;;
12631;SDS011;6381;45.748;12.106;2022-07-12T07:23:08;3.65;;;2.30;;
12631;SDS011;6381;45.748;12.106;2022-07-12T07:25:42;4.07;;;2.22;;
12631;SDS011;6381;45.748;12.106;2022-07-12T07:28:13;5.35;;;2.10;;
12631;SDS011;6381;45.748;12.106;2022-07-12T07:30:48;3.90;;;2.10;;
12631;SDS011;6381;45.748;12.106;2022-07-12T07:33:19;3.08;;;2.17;;
12631;SDS011;6381;45.748;12.106;2022-07-12T07:35:49;3.50;;;2.10;;
12631;SDS011;6381;45.748;12.106;2022-07-12T07:38:19;2.67;;;2.10;;
12631;SDS011;6381;45.748;12.106;2022-07-12T07:40:50;3.33;;;2.15;;
12631;SDS011;6381;45.748;12.106;2022-07-12T07:43:19;2.15;;;1.92;;
12631;SDS011;6381;45.748;12.106;2022-07-12T07:45:48;3.25;;;2.00;;
12631;SDS011;6381;45.748;12.106;2022-07-12T07:48:18;2.60;;;1.90;;
12631;SDS011;6381;45.748;12.106;2022-07-12T07:50:51;4.45;;;2.05;;
12631;SDS011;6381;45.748;12.106;2022-07-12T07:53:20;5.50;;;2.30;;
12631;SDS011;6381;45.748;12.106;2022-07-12T07:55:53;6.85;;;2.25;;
12631;SDS011;6381;45.748;12.106;2022-07-12T07:58:22;2.92;;;2.22;;
12631;SDS011;6381;45.748;12.106;2022-07-12T08:00:52;3.72;;;2.22;;
12631;SDS011;6381;45.748;12.106;2022-07-12T08:03:21;3.15;;;2.00;;
12631;SDS011;6381;45.748;12.106;2022-07-12T08:05:52;3.78;;;2.25;;
12631;SDS011;6381;45.748;12.106;2022-07-12T08:08:24;4.53;;;2.10;;
12631;SDS011;6381;45.748;12.106;2022-07-12T08:11:14;3.08;;;2.20;;
12631;SDS011;6381;45.748;12.106;2022-07-12T08:13:44;3.47;;;2.45;;
12631;SDS011;6381;45.748;12.106;2022-07-12T08:16:13;3.67;;;2.35;;
12631;SDS011;6381;45.748;12.106;2022-07-12T08:18:42;3.80;;;2.03;;
12631;SDS011;6381;45.748;12.106;2022-07-12T08:21:11;3.63;;;2.40;;
12631;SDS011;6381;45.748;12.106;2022-07-12T08:23:40;6.00;;;2.28;;
12631;SDS011;6381;45.748;12.106;2022-07-12T08:26:09;3.67;;;2.03;;
12631;SDS011;6381;45.748;12.106;2022-07-12T08:28:45;4.45;;;2.22;;
12631;SDS011;6381;45.748;12.106;2022-07-12T08:31:14;5.03;;;2.17;;
12631;SDS011;6381;45.748;12.106;2022-07-12T08:33:43;4.30;;;2.45;;
12631;SDS011;6381;45.748;12.106;2022-07-12T08:36:13;3.35;;;2.28;;
12631;SDS011;6381;45.748;12.106;2022-07-12T08:38:42;5.45;;;2.67;;
12631;SDS011;6381;45.748;12.106;2022-07-12T08:41:12;6.07;;;2.42;;
12631;SDS011;6381;45.748;12.106;2022-07-12T08:43:43;3.10;;;2.20;;
12631;SDS011;6381;45.748;12.106;2022-07-12T08:46:12;2.55;;;2.30;;
12631;SDS011;6381;45.748;12.106;2022-07-12T08:48:43;3.15;;;1.95;;
12631;SDS011;6381;45.748;12.106;2022-07-12T08:51:13;4.78;;;2.60;;
12631;SDS011;6381;45.748;12.106;2022-07-12T08:53:46;2.63;;;2.30;;
12631;SDS011;6381;45.748;12.106;2022-07-12T08:56:31;4.45;;;2.50;;
12631;SDS011;6381;45.748;12.106;2022-07-12T08:59:12;3.15;;;2.30;;
12631;SDS011;6381;45.748;12.106;2022-07-12T09:01:44;2.63;;;2.40;;
12631;SDS011;6381;45.748;12.106;2022-07-12T09:04:18;2.72;;;2.22;;
12631;SDS011;6381;45.748;12.106;2022-07-12T09:06:48;7.10;;;2.33;;
12631;SDS011;6381;45.748;12.106;2022-07-12T09:09:25;6.05;;;2.20;;
12631;SDS011;6381;45.748;12.106;2022-07-12T09:11:55;3.92;;;2.20;;
12631;SDS011;6381;45.748;12.106;2022-07-12T09:14:26;6.45;;;2.45;;
12631;SDS011;6381;45.748;12.106;2022-07-12T09:16:58;3.95;;;2.38;;
12631;SDS011;6381;45.748;12.106;2022-07-12T09:19:28;2.28;;;2.08;;
12631;SDS011;6381;45.748;12.106;2022-07-12T09:21:58;3.58;;;2.22;;
12631;SDS011;6381;45.748;12.106;2022-07-12T09:24:28;3.22;;;2.30;;
12631;SDS011;6381;45.748;12.106;2022-07-12T09:26:59;5.70;;;2.13;;
12631;SDS011;6381;45.748;12.106;2022-07-12T09:29:31;4.65;;;2.00;;
12631;SDS011;6381;45.748;12.106;2022-07-12T09:32:13;3.92;;;2.13;;
12631;SDS011;6381;45.748;12.106;2022-07-12T09:35:00;3.42;;;2.28;;
12631;SDS011;6381;45.748;12.106;2022-07-12T09:37:47;3.13;;;1.95;;
12631;SDS011;6381;45.748;12.106;2022-07-12T09:40:17;3.53;;;2.30;;
12631;SDS011;6381;45.748;12.106;2022-07-12T09:42:48;3.42;;;2.00;;
12631;SDS011;6381;45.748;12.106;2022-07-12T09:45:21;3.00;;;2.30;;
12631;SDS011;6381;45.748;12.106;2022-07-12T09:47:50;4.00;;;2.40;;
12631;SDS011;6381;45.748;12.106;2022-07-12T09:50:21;3.63;;;2.03;;
12631;SDS011;6381;45.748;12.106;2022-07-12T09:52:51;2.90;;;2.10;;
12631;SDS011;6381;45.748;12.106;2022-07-12T09:55:26;3.10;;;2.05;;
12631;SDS011;6381;45.748;12.106;2022-07-12T09:57:59;3.22;;;2.17;;
12631;SDS011;6381;45.748;12.106;2022-07-12T10:00:31;2.15;;;1.95;;
12631;SDS011;6381;45.748;12.106;2022-07-12T10:03:03;2.28;;;2.00;;
12631;SDS011;6381;45.748;12.106;2022-07-12T10:05:33;4.78;;;2.15;;
12631;SDS011;6381;45.748;12.106;2022-07-12T10:08:04;3.85;;;2.17;;
12631;SDS011;6381;45.748;12.106;2022-07-12T10:10:33;2.65;;;2.13;;
12631;SDS011;6381;45.748;12.106;2022-07-12T10:13:05;4.63;;;2.10;;
12631;SDS011;6381;45.748;12.106;2022-07-12T10:15:39;3.75;;;1.83;;
12631;SDS011;6381;45.748;12.106;2022-07-12T10:18:15;3.35;;;2.03;;
12631;SDS011;6381;45.748;12.106;2022-07-12T10:20:52;2.92;;;2.00;;
12631;SDS011;6381;45.748;12.106;2022-07-12T10:23:34;2.97;;;1.98;;
12631;SDS011;6381;45.748;12.106;2022-07-12T10:28:55;4.85;;;2.38;;
12631;SDS011;6381;45.748;12.106;2022-07-12T10:31:32;3.53;;;2.28;;
12631;SDS011;6381;45.748;12.106;2022-07-12T10:34:14;3.60;;;2.00;;
12631;SDS011;6381;45.748;12.106;2022-07-12T10:37:08;3.45;;;2.10;;
12631;SDS011;6381;45.748;12.106;2022-07-12T10:45:45;4.40;;;2.50;;
12631;SDS011;6381;45.748;12.106;2022-07-12T10:48:25;3.05;;;2.30;;
12631;SDS011;6381;45.748;12.106;2022-07-12T10:50:56;3.33;;;2.17;;
12631;SDS011;6381;45.748;12.106;2022-07-12T10:53:28;2.92;;;2.00;;
12631;SDS011;6381;45.748;12.106;2022-07-12T10:56:08;3.88;;;2.17;;
12631;SDS011;6381;45.748;12.106;2022-07-12T10:58:43;3.58;;;2.30;;
12631;SDS011;6381;45.748;12.106;2022-07-12T11:01:16;4.15;;;2.20;;
12631;SDS011;6381;45.748;12.106;2022-07-12T11:03:51;3.83;;;2.10;;
12631;SDS011;6381;45.748;12.106;2022-07-12T11:06:23;2.60;;;2.40;;
12631;SDS011;6381;45.748;12.106;2022-07-12T11:08:55;3.20;;;2.65;;
12631;SDS011;6381;45.748;12.106;2022-07-12T11:11:27;2.90;;;2.30;;
12631;SDS011;6381;45.748;12.106;2022-07-12T11:14:00;3.58;;;2.40;;
12631;SDS011;6381;45.748;12.106;2022-07-12T11:16:31;3.65;;;2.30;;
12631;SDS011;6381;45.748;12.106;2022-07-12T11:19:06;2.63;;;1.90;;
12631;SDS011;6381;45.748;12.106;2022-07-12T11:21:38;4.50;;;2.22;;
12631;SDS011;6381;45.748;12.106;2022-07-12T11:24:15;3.63;;;2.38;;
12631;SDS011;6381;45.748;12.106;2022-07-12T11:26:48;4.80;;;1.88;;
12631;SDS011;6381;45.748;12.106;2022-07-12T11:29:20;2.40;;;2.20;;
12631;SDS011;6381;45.748;12.106;2022-07-12T11:31:59;3.40;;;2.17;;
12631;SDS011;6381;45.748;12.106;2022-07-12T11:34:40;2.92;;;2.17;;
12631;SDS011;6381;45.748;12.106;2022-07-12T11:37:11;4.03;;;2.20;;
12631;SDS011;6381;45.748;12.106;2022-07-12T11:39:42;2.38;;;2.17;;
12631;SDS011;6381;45.748;12.106;2022-07-12T11:42:16;5.32;;;2.30;;
12631;SDS011;6381;45.748;12.106;2022-07-12T11:44:47;3.42;;;2.00;;
12631;SDS011;6381;45.748;12.106;2022-07-12T11:47:19;4.30;;;2.20;;
12631;SDS011;6381;45.748;12.106;2022-07-12T11:49:54;3.47;;;2.10;;
12631;SDS011;6381;45.748;12.106;2022-07-12T11:52:26;4.10;;;2.22;;
12631;SDS011;6381;45.748;12.106;2022-07-12T11:54:57;2.10;;;1.70;;
12631;SDS011;6381;45.748;12.106;2022-07-12T11:57:28;6.22;;;2.30;;
12631;SDS011;6381;45.748;12.106;2022-07-12T12:00:12;5.93;;;2.13;;
12631;SDS011;6381;45.748;12.106;2022-07-12T12:02:44;2.50;;;2.30;;
12631;SDS011;6381;45.748;12.106;2022-07-12T12:05:18;3.10;;;2.00;;
12631;SDS011;6381;45.748;12.106;2022-07-12T12:07:50;3.53;;;2.20;;
12631;SDS011;6381;45.748;12.106;2022-07-12T12:10:22;4.20;;;2.17;;
12631;SDS011;6381;45.748;12.106;2022-07-12T12:12:52;4.03;;;2.30;;
12631;SDS011;6381;45.748;12.106;2022-07-12T12:15:24;5.22;;;2.28;;
12631;SDS011;6381;45.748;12.106;2022-07-12T12:17:57;4.75;;;2.38;;
12631;SDS011;6381;45.748;12.106;2022-07-12T12:20:30;2.30;;;2.10;;
12631;SDS011;6381;45.748;12.106;2022-07-12T12:23:02;2.50;;;2.17;;
12631;SDS011;6381;45.748;12.106;2022-07-12T12:25:34;3.83;;;2.20;;
12631;SDS011;6381;45.748;12.106;2022-07-12T12:28:04;4.18;;;2.20;;
12631;SDS011;6381;45.748;12.106;2022-07-12T12:30:51;2.38;;;1.80;;
12631;SDS011;6381;45.748;12.106;2022-07-12T12:33:32;3.33;;;2.30;;
12631;SDS011;6381;45.748;12.106;2022-07-12T12:36:12;4.03;;;2.00;;
12631;SDS011;6381;45.748;12.106;2022-07-12T12:38:45;11.30;;;2.55;;
12631;SDS011;6381;45.748;12.106;2022-07-12T12:41:16;3.25;;;2.28;;
12631;SDS011;6381;45.748;12.106;2022-07-12T12:43:56;2.80;;;2.08;;
12631;SDS011;6381;45.748;12.106;2022-07-12T12:46:44;3.75;;;2.20;;
12631;SDS011;6381;45.748;12.106;2022-07-12T12:49:45;3.13;;;2.15;;
12631;SDS011;6381;45.748;12.106;2022-07-12T12:52:25;2.58;;;2.05;;
12631;SDS011;6381;45.748;12.106;2022-07-12T12:54:56;4.32;;;2.40;;
12631;SDS011;6381;45.748;12.106;2022-07-12T12:57:27;3.80;;;2.10;;
12631;SDS011;6381;45.748;12.106;2022-07-12T12:59:57;2.88;;;2.10;;
12631;SDS011;6381;45.748;12.106;2022-07-12T13:02:28;3.60;;;2.28;;
12631;SDS011;6381;45.748;12.106;2022-07-12T13:04:58;5.88;;;2.20;;
12631;SDS011;6381;45.748;12.106;2022-07-12T13:07:30;2.75;;;2.17;;
12631;SDS011;6381;45.748;12.106;2022-07-12T13:10:00;2.55;;;2.20;;
12631;SDS011;6381;45.748;12.106;2022-07-12T13:12:30;3.25;;;2.28;;
12631;SDS011;6381;45.748;12.106;2022-07-12T13:15:01;5.75;;;2.50;;
12631;SDS011;6381;45.748;12.106;2022-07-12T13:17:35;2.88;;;2.20;;
12631;SDS011;6381;45.748;12.106;2022-07-12T13:20:06;2.80;;;2.58;;
12631;SDS011;6381;45.748;12.106;2022-07-12T13:22:38;4.95;;;2.25;;
12631;SDS011;6381;45.748;12.106;2022-07-12T13:25:10;4.63;;;2.40;;
12631;SDS011;6381;45.748;12.106;2022-07-12T13:27:41;3.85;;;2.40;;
12631;SDS011;6381;45.748;12.106;2022-07-12T13:30:12;2.92;;;2.30;;
12631;SDS011;6381;45.748;12.106;2022-07-12T13:32:44;4.07;;;2.20;;
12631;SDS011;6381;45.748;12.106;2022-07-12T13:35:15;2.70;;;2.30;;
12631;SDS011;6381;45.748;12.106;2022-07-12T13:37:47;3.17;;;2.15;;
12631;SDS011;6381;45.748;12.106;2022-07-12T13:40:22;3.92;;;2.58;;
12631;SDS011;6381;45.748;12.106;2022-07-12T13:42:52;3.65;;;2.42;;
12631;SDS011;6381;45.748;12.106;2022-07-12T13:45:23;4.35;;;2.53;;
12631;SDS011;6381;45.748;12.106;2022-07-12T13:47:53;5.05;;;2.25;;
12631;SDS011;6381;45.748;12.106;2022-07-12T13:50:23;3.30;;;2.33;;
12631;SDS011;6381;45.748;12.106;2022-07-12T13:53:00;4.03;;;2.55;;
12631;SDS011;6381;45.748;12.106;2022-07-12T13:55:30;3.40;;;2.30;;
12631;SDS011;6381;45.748;12.106;2022-07-12T13:58:00;7.10;;;2.40;;
12631;SDS011;6381;45.748;12.106;2022-07-12T14:00:29;4.70;;;2.20;;
12631;SDS011;6381;45.748;12.106;2022-07-12T14:02:59;2.95;;;2.00;;
12631;SDS011;6381;45.748;12.106;2022-07-12T14:05:29;3.38;;;2.30;;
12631;SDS011;6381;45.748;12.106;2022-07-12T14:08:00;3.10;;;2.20;;
12631;SDS011;6381;45.748;12.106;2022-07-12T14:10:30;4.10;;;2.28;;
12631;SDS011;6381;45.748;12.106;2022-07-12T14:13:00;3.08;;;2.30;;
12631;SDS011;6381;45.748;12.106;2022-07-12T14:15:30;4.63;;;2.13;;
12631;SDS011;6381;45.748;12.106;2022-07-12T14:18:07;3.33;;;2.25;;
12631;SDS011;6381;45.748;12.106;2022-07-12T14:20:37;4.45;;;2.22;;
12631;SDS011;6381;45.748;12.106;2022-07-12T14:23:08;4.78;;;2.30;;
12631;SDS011;6381;45.748;12.106;2022-07-12T14:25:40;2.40;;;1.90;;
12631;SDS011;6381;45.748;12.106;2022-07-12T14:28:09;2.45;;;2.20;;
12631;SDS011;6381;45.748;12.106;2022-07-12T14:30:42;3.75;;;2.22;;
12631;SDS011;6381;45.748;12.106;2022-07-12T14:33:12;2.65;;;2.17;;
12631;SDS011;6381;45.748;12.106;2022-07-12T14:35:41;2.60;;;2.22;;
12631;SDS011;6381;45.748;12.106;2022-07-12T14:38:13;3.25;;;2.20;;
12631;SDS011;6381;45.748;12.106;2022-07-12T14:40:43;3.00;;;2.13;;
12631;SDS011;6381;45.748;12.106;2022-07-12T14:43:13;2.83;;;2.15;;
12631;SDS011;6381;45.748;12.106;2022-07-12T14:45:44;4.35;;;2.53;;
12631;SDS011;6381;45.748;12.106;2022-07-12T14:48:13;2.85;;;2.17;;
12631;SDS011;6381;45.748;12.106;2022-07-12T14:50:43;6.55;;;2.35;;
12631;SDS011;6381;45.748;12.106;2022-07-12T14:53:20;3.58;;;1.95;;
12631;SDS011;6381;45.748;12.106;2022-07-12T14:55:50;1.95;;;1.73;;
12631;SDS011;6381;45.748;12.106;2022-07-12T14:58:20;2.50;;;2.03;;
12631;SDS011;6381;45.748;12.106;2022-07-12T15:00:50;2.85;;;1.70;;
12631;SDS011;6381;45.748;12.106;2022-07-12T15:03:22;3.50;;;2.10;;
12631;SDS011;6381;45.748;12.106;2022-07-12T15:05:53;2.83;;;1.90;;
12631;SDS011;6381;45.748;12.106;2022-07-12T15:08:28;2.35;;;2.00;;
12631;SDS011;6381;45.748;12.106;2022-07-12T15:10:58;5.68;;;2.00;;
12631;SDS011;6381;45.748;12.106;2022-07-12T15:13:28;4.55;;;2.10;;
12631;SDS011;6381;45.748;12.106;2022-07-12T15:15:58;2.58;;;2.03;;
12631;SDS011;6381;45.748;12.106;2022-07-12T15:18:28;2.28;;;2.08;;
12631;SDS011;6381;45.748;12.106;2022-07-12T15:20:57;4.93;;;2.17;;